createdAt,value
2019-06-26T00:01:30.672Z,5.93
2019-06-26T00:06:35.983Z,5.50
2019-06-26T00:11:41.691Z,5.50
2019-06-26T00:16:47.312Z,5.83
2019-06-26T00:21:52.541Z,5.60
2019-06-26T00:26:57.798Z,5.53
2019-06-26T00:32:02.946Z,5.73
2019-06-26T00:37:08.484Z,6.30
2019-06-26T00:42:13.670Z,5.70
2019-06-26T00:47:18.889Z,5.77
2019-06-26T00:52:24.254Z,5.60
2019-06-26T00:57:29.540Z,5.23
2019-06-26T01:02:34.754Z,5.73
2019-06-26T01:07:39.986Z,5.47
2019-06-26T01:12:45.641Z,5.87
2019-06-26T01:17:51.620Z,5.67
2019-06-26T01:22:56.796Z,5.60
2019-06-26T01:28:02.113Z,5.50
2019-06-26T01:33:07.323Z,5.53
2019-06-26T01:38:12.564Z,5.50
2019-06-26T01:43:17.799Z,5.33
2019-06-26T01:48:23.223Z,5.27
2019-06-26T01:53:28.482Z,5.00
2019-06-26T01:58:33.772Z,5.07
2019-06-26T02:03:38.884Z,5.70
2019-06-26T02:08:44.133Z,5.50
2019-06-26T02:13:49.571Z,5.40
2019-06-26T02:18:58.137Z,5.50
2019-06-26T02:24:03.349Z,5.50
2019-06-26T02:29:08.590Z,5.90
2019-06-26T02:34:13.843Z,6.30
2019-06-26T02:39:19.138Z,5.80
2019-06-26T02:44:25.828Z,6.33
2019-06-26T02:49:31.147Z,6.20
2019-06-26T02:54:36.352Z,5.83
2019-06-26T02:59:42.669Z,6.27
2019-06-26T03:04:47.865Z,6.40
2019-06-26T03:09:53.120Z,6.33
2019-06-26T03:15:08.895Z,7.30
2019-06-26T03:20:07.337Z,7.23
2019-06-26T03:25:13.857Z,6.63
2019-06-26T03:30:19.580Z,6.50
2019-06-26T03:35:24.766Z,6.80
2019-06-26T03:40:30.082Z,6.13
2019-06-26T03:45:35.304Z,7.00
2019-06-26T03:50:40.618Z,7.23
2019-06-26T03:55:45.691Z,7.37
2019-06-26T04:00:50.903Z,7.03
2019-06-26T04:05:56.313Z,8.00
2019-06-26T04:11:02.479Z,7.57
2019-06-26T04:16:08.114Z,6.70
2019-06-26T04:21:13.466Z,6.80
2019-06-26T04:26:18.642Z,7.20
2019-06-26T04:31:23.979Z,6.83
2019-06-26T04:36:29.272Z,7.37
2019-06-26T04:41:34.776Z,6.60
2019-06-26T04:46:39.960Z,7.07
2019-06-26T04:51:45.188Z,7.43
2019-06-26T04:56:50.273Z,7.03
2019-06-26T05:01:55.429Z,7.57
2019-06-26T05:07:00.728Z,6.80
2019-06-26T05:12:07.048Z,9.23
2019-06-26T05:17:12.836Z,8.77
2019-06-26T05:22:18.468Z,7.63
2019-06-26T05:27:23.714Z,8.20
2019-06-26T05:32:29.354Z,7.90
2019-06-26T05:37:34.670Z,8.70
2019-06-26T05:42:39.885Z,9.60
2019-06-26T05:47:45.176Z,8.13
2019-06-26T05:52:50.581Z,8.77
2019-06-26T05:57:55.751Z,8.90
2019-06-26T06:03:01.063Z,8.40
2019-06-26T06:08:06.249Z,8.30
2019-06-26T06:13:11.447Z,9.37
2019-06-26T06:18:17.184Z,10.13
2019-06-26T06:23:22.303Z,9.47
2019-06-26T06:28:27.939Z,9.20
2019-06-26T06:33:33.157Z,9.20
2019-06-26T06:38:38.315Z,8.60
2019-06-26T06:43:43.664Z,9.20
2019-06-26T06:48:48.776Z,9.30
2019-06-26T06:53:53.904Z,10.00
2019-06-26T06:58:59.075Z,9.83
2019-06-26T07:04:04.517Z,9.80
2019-06-26T07:09:09.756Z,9.40
2019-06-26T07:14:14.922Z,10.07
2019-06-26T07:19:20.526Z,9.90
2019-06-26T07:24:25.654Z,9.53
2019-06-26T07:29:31.001Z,10.10
2019-06-26T07:34:36.212Z,10.10
2019-06-26T07:39:41.675Z,9.40
2019-06-26T07:44:46.807Z,9.70
2019-06-26T07:49:51.984Z,10.00
2019-06-26T07:54:57.473Z,10.20
2019-06-26T08:00:02.753Z,10.10
2019-06-26T08:05:11.440Z,9.63
2019-06-26T08:10:17.104Z,9.37
2019-06-26T08:15:22.423Z,10.37
2019-06-26T08:20:27.735Z,10.33
2019-06-26T08:25:32.920Z,12.23
2019-06-26T08:30:38.206Z,10.70
2019-06-26T08:35:43.417Z,10.63
2019-06-26T08:40:48.475Z,10.87
2019-06-26T08:45:53.652Z,9.70
2019-06-26T08:50:58.821Z,9.83
2019-06-26T08:56:04.633Z,10.10
2019-06-26T09:01:09.844Z,8.43
2019-06-26T09:06:15.002Z,8.10
2019-06-26T09:11:20.332Z,8.23
2019-06-26T09:16:25.697Z,7.58
2019-06-26T09:21:31.471Z,8.13
2019-06-26T09:26:36.633Z,8.60
2019-06-26T09:31:41.825Z,8.20
2019-06-26T09:36:46.994Z,7.33
2019-06-26T09:41:52.168Z,7.70
2019-06-26T09:46:57.637Z,7.90
2019-06-26T09:52:03.026Z,7.30
2019-06-26T09:57:08.640Z,7.67
2019-06-26T10:02:13.850Z,7.15
2019-06-26T10:07:19.011Z,7.80
2019-06-26T10:12:24.382Z,7.45
2019-06-26T10:17:29.574Z,7.72
2019-06-26T10:22:34.877Z,8.38
2019-06-26T10:27:40.354Z,8.73
2019-06-26T10:32:45.650Z,8.25
2019-06-26T10:37:51.028Z,8.83
2019-06-26T10:42:56.611Z,8.73
2019-06-26T10:48:02.067Z,8.63
2019-06-26T10:53:07.865Z,8.55
2019-06-26T10:58:13.513Z,8.55
2019-06-26T11:03:18.687Z,8.93
2019-06-26T11:08:24.012Z,8.85
2019-06-26T11:13:29.601Z,8.25
2019-06-26T11:18:34.772Z,9.23
2019-06-26T11:23:39.886Z,8.60
2019-06-26T11:28:45.657Z,8.00
2019-06-26T11:33:51.218Z,7.70
2019-06-26T11:38:56.599Z,7.85
2019-06-26T11:44:01.810Z,7.30
2019-06-26T11:49:07.109Z,8.03
2019-06-26T11:54:12.350Z,7.10
2019-06-26T11:59:17.905Z,7.20
2019-06-26T12:04:23.672Z,7.10
2019-06-26T12:09:30.264Z,6.80
2019-06-26T12:14:35.509Z,6.85
2019-06-26T12:19:41.393Z,6.80
2019-06-26T12:24:49.616Z,9.75
2019-06-26T12:29:55.422Z,9.43
2019-06-26T12:35:01.061Z,10.05
2019-06-26T12:40:08.054Z,10.63
2019-06-26T12:45:14.811Z,10.75
2019-06-26T12:50:34.461Z,11.50
2019-06-26T12:55:32.987Z,11.12
2019-06-26T13:00:38.484Z,11.57
2019-06-26T13:05:46.851Z,11.57
2019-06-26T13:10:52.246Z,11.60
2019-06-26T13:15:57.491Z,11.38
2019-06-26T13:21:05.162Z,10.90
2019-06-26T13:26:10.050Z,10.28
2019-06-26T13:31:16.484Z,10.60
2019-06-26T13:36:21.696Z,10.95
2019-06-26T13:41:26.850Z,10.43
2019-06-26T13:46:32.123Z,9.93
2019-06-26T13:51:37.392Z,9.18
2019-06-26T13:56:43.389Z,9.88
2019-06-26T14:01:49.043Z,9.23
2019-06-26T14:06:54.574Z,9.68
2019-06-26T14:12:00.078Z,9.00
2019-06-26T14:17:05.635Z,9.05
2019-06-26T14:22:13.086Z,8.98
2019-06-26T14:27:18.287Z,9.65
2019-06-26T14:32:23.652Z,9.78
2019-06-26T14:37:28.991Z,9.35
2019-06-26T14:42:34.372Z,9.68
2019-06-26T14:47:39.838Z,10.63
2019-06-26T14:52:46.070Z,10.18
2019-06-26T14:57:52.488Z,9.80
2019-06-26T15:02:57.861Z,10.00
2019-06-26T15:08:03.724Z,9.83
2019-06-26T15:13:09.492Z,9.45
2019-06-26T15:18:15.262Z,9.68
2019-06-26T15:23:20.612Z,9.90
2019-06-26T15:28:25.852Z,10.10
2019-06-26T15:33:31.343Z,9.68
2019-06-26T15:38:36.816Z,9.75
2019-06-26T15:43:42.287Z,9.45
2019-06-26T15:48:50.266Z,9.35
2019-06-26T15:53:54.466Z,9.40
2019-06-26T15:58:59.771Z,9.43
2019-06-26T16:04:05.131Z,10.15
2019-06-26T16:09:10.488Z,9.90
2019-06-26T16:14:15.846Z,9.70
2019-06-26T16:19:22.951Z,10.35
2019-06-26T16:24:30.220Z,9.78
2019-06-26T16:29:35.592Z,9.35
2019-06-26T16:34:40.877Z,9.90
2019-06-26T16:39:46.173Z,10.23
2019-06-26T16:44:51.430Z,10.00
2019-06-26T16:49:56.737Z,9.73
2019-06-26T16:55:03.035Z,10.10
2019-06-26T17:00:11.052Z,9.76
2019-06-26T17:05:17.404Z,9.78
2019-06-26T17:10:23.298Z,9.57
2019-06-26T17:15:28.619Z,10.80
2019-06-26T17:20:34.372Z,10.53
2019-06-26T17:25:39.605Z,11.65
2019-06-26T17:30:44.878Z,12.10
2019-06-26T17:35:50.697Z,12.13
2019-06-26T17:40:59.383Z,11.28
2019-06-26T17:46:03.448Z,8.30
2019-06-26T17:51:09.657Z,7.78
2019-06-26T17:56:15.010Z,7.95
2019-06-26T18:01:20.258Z,7.10
2019-06-26T18:06:26.642Z,6.70
2019-06-26T18:11:32.722Z,6.60
2019-06-26T18:16:38.042Z,5.55
2019-06-26T18:21:43.831Z,6.22
2019-06-26T18:26:49.119Z,6.40
2019-06-26T18:31:54.555Z,5.63
2019-06-26T18:37:00.026Z,6.53
2019-06-26T18:42:05.333Z,6.17
2019-06-26T18:47:10.727Z,6.27
2019-06-26T18:52:15.804Z,5.80
2019-06-26T18:57:21.038Z,5.87
2019-06-26T19:02:26.432Z,6.50
2019-06-26T19:07:31.726Z,6.20
2019-06-26T19:12:37.031Z,6.23
2019-06-26T19:17:42.898Z,6.23
2019-06-26T19:22:48.341Z,7.50
2019-06-26T19:27:53.813Z,7.87
2019-06-26T19:32:59.128Z,8.90
2019-06-26T19:38:04.382Z,9.53
2019-06-26T19:43:11.117Z,9.40
2019-06-26T19:48:16.645Z,10.63
2019-06-26T19:53:21.974Z,10.00
2019-06-26T19:58:27.227Z,10.00
2019-06-26T20:03:33.597Z,10.10
2019-06-26T20:08:53.057Z,9.87
2019-06-26T20:13:46.338Z,10.40
2019-06-26T20:18:51.782Z,9.27
2019-06-26T20:23:57.374Z,8.90
2019-06-26T20:29:02.671Z,9.10
2019-06-26T20:34:08.105Z,9.00
2019-06-26T20:39:13.388Z,8.20
2019-06-26T20:44:18.989Z,7.40
2019-06-26T20:49:24.456Z,8.07
2019-06-26T20:54:29.725Z,7.80
2019-06-26T20:59:35.588Z,7.73
2019-06-26T21:04:41.271Z,7.13
2019-06-26T21:09:46.638Z,7.77
2019-06-26T21:14:51.869Z,6.97
2019-06-26T21:19:57.108Z,8.10
2019-06-26T21:25:16.828Z,7.07
2019-06-26T21:30:11.101Z,7.23
2019-06-26T21:35:16.578Z,7.97
2019-06-26T21:40:21.963Z,7.77
2019-06-26T21:45:28.119Z,7.33
2019-06-26T21:50:33.460Z,6.93
2019-06-26T21:55:39.031Z,7.33
2019-06-26T22:01:01.981Z,7.13
2019-06-26T22:06:24.981Z,6.57
2019-06-26T22:11:47.228Z,7.13
2019-06-26T22:16:52.661Z,7.27
2019-06-26T22:21:58.027Z,7.37
2019-06-26T22:27:03.282Z,6.53
2019-06-26T22:32:08.560Z,6.77
2019-06-26T22:37:13.892Z,6.13
2019-06-26T22:42:19.882Z,6.30
2019-06-26T22:47:25.485Z,5.57
2019-06-26T22:52:30.678Z,6.50
2019-06-26T22:57:37.504Z,5.80
2019-06-26T23:02:42.966Z,6.37
2019-06-26T23:07:48.549Z,5.57
2019-06-26T23:12:54.296Z,5.43
2019-06-26T23:18:00.005Z,5.80
2019-06-26T23:23:05.734Z,5.53
2019-06-26T23:28:11.382Z,5.27
2019-06-26T23:33:18.081Z,5.47
2019-06-26T23:38:23.648Z,5.33
2019-06-26T23:43:30.437Z,5.57
2019-06-26T23:48:36.112Z,5.30
2019-06-26T23:53:42.075Z,5.97
2019-06-26T23:58:47.436Z,5.80
